sensor_id;sensor_type;location;lat;lon;timestamp;P1;durP1;ratioP1;P2;durP2;ratioP2
40787;SDS011;26497;52.494;7.546;2023-03-08T00:01:22;13.70;;;6.78;;
40787;SDS011;26497;52.494;7.546;2023-03-08T00:03:50;17.23;;;5.60;;
40787;SDS011;26497;52.494;7.546;2023-03-08T00:06:18;17.85;;;6.25;;
40787;SDS011;26497;52.494;7.546;2023-03-08T00:08:46;14.90;;;6.50;;
40787;SDS011;26497;52.494;7.546;2023-03-08T00:11:15;11.82;;;6.43;;
40787;SDS011;26497;52.494;7.546;2023-03-08T00:13:42;15.38;;;6.78;;
40787;SDS011;26497;52.494;7.546;2023-03-08T00:16:10;13.30;;;7.35;;
40787;SDS011;26497;52.494;7.546;2023-03-08T00:18:38;14.13;;;6.68;;
40787;SDS011;26497;52.494;7.546;2023-03-08T00:21:06;16.67;;;7.05;;
40787;SDS011;26497;52.494;7.546;2023-03-08T00:23:36;19.30;;;6.85;;
40787;SDS011;26497;52.494;7.546;2023-03-08T00:26:03;14.65;;;8.27;;
40787;SDS011;26497;52.494;7.546;2023-03-08T00:28:32;13.73;;;6.65;;
40787;SDS011;26497;52.494;7.546;2023-03-08T00:31:00;12.80;;;7.68;;
40787;SDS011;26497;52.494;7.546;2023-03-08T00:33:30;17.35;;;8.25;;
40787;SDS011;26497;52.494;7.546;2023-03-08T00:35:58;19.65;;;8.57;;
40787;SDS011;26497;52.494;7.546;2023-03-08T00:38:27;15.45;;;8.02;;
40787;SDS011;26497;52.494;7.546;2023-03-08T00:40:57;19.63;;;9.13;;
40787;SDS011;26497;52.494;7.546;2023-03-08T00:43:25;21.70;;;9.65;;
40787;SDS011;26497;52.494;7.546;2023-03-08T00:45:53;25.77;;;8.85;;
40787;SDS011;26497;52.494;7.546;2023-03-08T00:48:21;28.27;;;10.07;;
40787;SDS011;26497;52.494;7.546;2023-03-08T00:50:49;19.23;;;8.82;;
40787;SDS011;26497;52.494;7.546;2023-03-08T00:53:16;17.98;;;8.55;;
40787;SDS011;26497;52.494;7.546;2023-03-08T00:55:47;32.63;;;10.85;;
40787;SDS011;26497;52.494;7.546;2023-03-08T01:00:42;26.60;;;9.85;;
40787;SDS011;26497;52.494;7.546;2023-03-08T01:03:11;21.75;;;10.02;;
40787;SDS011;26497;52.494;7.546;2023-03-08T01:05:39;21.08;;;10.27;;
40787;SDS011;26497;52.494;7.546;2023-03-08T01:08:07;29.77;;;10.50;;
40787;SDS011;26497;52.494;7.546;2023-03-08T01:10:35;18.52;;;8.90;;
40787;SDS011;26497;52.494;7.546;2023-03-08T01:13:02;18.45;;;8.82;;
40787;SDS011;26497;52.494;7.546;2023-03-08T01:15:33;18.80;;;8.90;;
40787;SDS011;26497;52.494;7.546;2023-03-08T01:18:01;19.23;;;9.50;;
40787;SDS011;26497;52.494;7.546;2023-03-08T01:20:29;21.50;;;9.40;;
40787;SDS011;26497;52.494;7.546;2023-03-08T01:22:56;19.10;;;8.93;;
40787;SDS011;26497;52.494;7.546;2023-03-08T01:25:23;20.92;;;8.50;;
40787;SDS011;26497;52.494;7.546;2023-03-08T01:27:50;23.75;;;10.50;;
40787;SDS011;26497;52.494;7.546;2023-03-08T01:30:17;28.98;;;10.38;;
40787;SDS011;26497;52.494;7.546;2023-03-08T01:32:46;20.67;;;8.45;;
40787;SDS011;26497;52.494;7.546;2023-03-08T01:35:14;19.90;;;9.93;;
40787;SDS011;26497;52.494;7.546;2023-03-08T01:37:42;20.00;;;8.95;;
40787;SDS011;26497;52.494;7.546;2023-03-08T01:40:10;18.15;;;8.70;;
40787;SDS011;26497;52.494;7.546;2023-03-08T01:42:39;19.35;;;9.40;;
40787;SDS011;26497;52.494;7.546;2023-03-08T01:48:27;20.13;;;9.05;;
40787;SDS011;26497;52.494;7.546;2023-03-08T01:50:59;22.15;;;8.80;;
40787;SDS011;26497;52.494;7.546;2023-03-08T01:53:29;22.95;;;9.90;;
40787;SDS011;26497;52.494;7.546;2023-03-08T01:55:57;16.60;;;8.85;;
40787;SDS011;26497;52.494;7.546;2023-03-08T01:58:24;22.42;;;9.93;;
40787;SDS011;26497;52.494;7.546;2023-03-08T02:00:52;30.23;;;11.32;;
40787;SDS011;26497;52.494;7.546;2023-03-08T02:03:19;19.52;;;10.27;;
40787;SDS011;26497;52.494;7.546;2023-03-08T02:05:46;26.55;;;11.43;;
40787;SDS011;26497;52.494;7.546;2023-03-08T02:08:15;26.15;;;11.70;;
40787;SDS011;26497;52.494;7.546;2023-03-08T02:10:44;23.35;;;11.40;;
40787;SDS011;26497;52.494;7.546;2023-03-08T02:13:11;24.60;;;10.98;;
40787;SDS011;26497;52.494;7.546;2023-03-08T02:15:39;26.08;;;11.65;;
40787;SDS011;26497;52.494;7.546;2023-03-08T02:18:06;34.05;;;12.25;;
40787;SDS011;26497;52.494;7.546;2023-03-08T02:20:33;28.10;;;11.40;;
40787;SDS011;26497;52.494;7.546;2023-03-08T02:23:08;30.98;;;12.40;;
40787;SDS011;26497;52.494;7.546;2023-03-08T02:25:37;27.50;;;12.45;;
40787;SDS011;26497;52.494;7.546;2023-03-08T02:28:05;24.08;;;12.15;;
40787;SDS011;26497;52.494;7.546;2023-03-08T02:30:34;31.23;;;13.50;;
40787;SDS011;26497;52.494;7.546;2023-03-08T02:33:03;32.20;;;14.73;;
40787;SDS011;26497;52.494;7.546;2023-03-08T02:35:30;30.10;;;13.57;;
40787;SDS011;26497;52.494;7.546;2023-03-08T02:37:57;42.78;;;16.60;;
40787;SDS011;26497;52.494;7.546;2023-03-08T02:40:25;33.95;;;14.40;;
40787;SDS011;26497;52.494;7.546;2023-03-08T02:42:53;32.85;;;14.32;;
40787;SDS011;26497;52.494;7.546;2023-03-08T02:45:20;33.13;;;15.38;;
40787;SDS011;26497;52.494;7.546;2023-03-08T02:47:48;38.90;;;17.65;;
40787;SDS011;26497;52.494;7.546;2023-03-08T02:50:15;38.88;;;17.23;;
40787;SDS011;26497;52.494;7.546;2023-03-08T02:52:42;40.88;;;15.05;;
40787;SDS011;26497;52.494;7.546;2023-03-08T02:55:09;31.33;;;15.05;;
40787;SDS011;26497;52.494;7.546;2023-03-08T02:57:38;38.75;;;17.63;;
40787;SDS011;26497;52.494;7.546;2023-03-08T03:00:06;41.95;;;16.30;;
40787;SDS011;26497;52.494;7.546;2023-03-08T03:02:36;33.85;;;15.95;;
40787;SDS011;26497;52.494;7.546;2023-03-08T03:05:03;42.33;;;18.30;;
40787;SDS011;26497;52.494;7.546;2023-03-08T03:10:02;35.95;;;15.65;;
40787;SDS011;26497;52.494;7.546;2023-03-08T03:12:30;35.67;;;18.17;;
40787;SDS011;26497;52.494;7.546;2023-03-08T03:14:59;38.13;;;17.42;;
40787;SDS011;26497;52.494;7.546;2023-03-08T03:17:27;35.83;;;17.13;;
40787;SDS011;26497;52.494;7.546;2023-03-08T03:19:54;37.92;;;15.68;;
40787;SDS011;26497;52.494;7.546;2023-03-08T03:22:21;39.70;;;16.73;;
40787;SDS011;26497;52.494;7.546;2023-03-08T03:24:49;42.45;;;17.98;;
40787;SDS011;26497;52.494;7.546;2023-03-08T03:27:16;35.33;;;15.10;;
40787;SDS011;26497;52.494;7.546;2023-03-08T03:29:43;33.50;;;15.20;;
40787;SDS011;26497;52.494;7.546;2023-03-08T03:32:12;31.77;;;16.02;;
40787;SDS011;26497;52.494;7.546;2023-03-08T03:34:39;32.17;;;16.73;;
40787;SDS011;26497;52.494;7.546;2023-03-08T03:37:07;38.35;;;16.75;;
40787;SDS011;26497;52.494;7.546;2023-03-08T03:39:34;41.22;;;17.95;;
40787;SDS011;26497;52.494;7.546;2023-03-08T03:42:03;37.08;;;18.00;;
40787;SDS011;26497;52.494;7.546;2023-03-08T03:44:31;36.33;;;16.90;;
40787;SDS011;26497;52.494;7.546;2023-03-08T03:46:58;42.05;;;17.63;;
40787;SDS011;26497;52.494;7.546;2023-03-08T03:49:27;45.78;;;16.85;;
40787;SDS011;26497;52.494;7.546;2023-03-08T03:51:54;40.17;;;18.17;;
40787;SDS011;26497;52.494;7.546;2023-03-08T03:54:23;42.92;;;17.95;;
40787;SDS011;26497;52.494;7.546;2023-03-08T03:56:51;53.05;;;17.13;;
40787;SDS011;26497;52.494;7.546;2023-03-08T03:59:22;40.08;;;18.35;;
40787;SDS011;26497;52.494;7.546;2023-03-08T04:01:49;49.40;;;18.35;;
40787;SDS011;26497;52.494;7.546;2023-03-08T04:04:17;34.85;;;16.17;;
40787;SDS011;26497;52.494;7.546;2023-03-08T04:06:46;38.08;;;18.10;;
40787;SDS011;26497;52.494;7.546;2023-03-08T04:09:14;41.30;;;18.65;;
40787;SDS011;26497;52.494;7.546;2023-03-08T04:11:43;51.78;;;19.98;;
40787;SDS011;26497;52.494;7.546;2023-03-08T04:14:10;43.05;;;18.63;;
40787;SDS011;26497;52.494;7.546;2023-03-08T04:16:37;60.17;;;21.35;;
40787;SDS011;26497;52.494;7.546;2023-03-08T04:19:06;55.28;;;18.75;;
40787;SDS011;26497;52.494;7.546;2023-03-08T04:21:36;45.28;;;19.80;;
40787;SDS011;26497;52.494;7.546;2023-03-08T04:24:05;42.25;;;19.67;;
40787;SDS011;26497;52.494;7.546;2023-03-08T04:26:32;50.38;;;20.67;;
40787;SDS011;26497;52.494;7.546;2023-03-08T04:29:00;47.72;;;21.60;;
40787;SDS011;26497;52.494;7.546;2023-03-08T04:31:30;54.55;;;21.48;;
40787;SDS011;26497;52.494;7.546;2023-03-08T04:33:59;55.75;;;22.48;;
40787;SDS011;26497;52.494;7.546;2023-03-08T04:36:27;54.63;;;21.33;;
40787;SDS011;26497;52.494;7.546;2023-03-08T04:38:54;42.38;;;19.10;;
40787;SDS011;26497;52.494;7.546;2023-03-08T04:41:23;45.03;;;18.13;;
40787;SDS011;26497;52.494;7.546;2023-03-08T04:43:51;50.65;;;21.90;;
40787;SDS011;26497;52.494;7.546;2023-03-08T04:46:20;46.80;;;18.90;;
40787;SDS011;26497;52.494;7.546;2023-03-08T04:48:50;41.72;;;18.92;;
40787;SDS011;26497;52.494;7.546;2023-03-08T04:51:19;55.35;;;20.52;;
40787;SDS011;26497;52.494;7.546;2023-03-08T04:53:48;48.70;;;20.55;;
40787;SDS011;26497;52.494;7.546;2023-03-08T04:56:16;49.67;;;19.35;;
40787;SDS011;26497;52.494;7.546;2023-03-08T04:58:45;50.10;;;20.08;;
40787;SDS011;26497;52.494;7.546;2023-03-08T05:01:13;47.78;;;20.73;;
40787;SDS011;26497;52.494;7.546;2023-03-08T05:03:42;70.43;;;20.75;;
40787;SDS011;26497;52.494;7.546;2023-03-08T05:06:11;49.90;;;20.17;;
40787;SDS011;26497;52.494;7.546;2023-03-08T05:08:39;40.33;;;16.92;;
40787;SDS011;26497;52.494;7.546;2023-03-08T05:11:06;48.08;;;19.38;;
40787;SDS011;26497;52.494;7.546;2023-03-08T05:13:35;57.22;;;19.73;;
40787;SDS011;26497;52.494;7.546;2023-03-08T05:16:06;55.35;;;19.40;;
40787;SDS011;26497;52.494;7.546;2023-03-08T05:18:33;48.90;;;19.42;;
40787;SDS011;26497;52.494;7.546;2023-03-08T05:21:01;47.55;;;17.30;;
40787;SDS011;26497;52.494;7.546;2023-03-08T05:23:31;47.83;;;18.58;;
40787;SDS011;26497;52.494;7.546;2023-03-08T05:25:59;52.65;;;18.42;;
40787;SDS011;26497;52.494;7.546;2023-03-08T05:28:28;48.47;;;17.05;;
40787;SDS011;26497;52.494;7.546;2023-03-08T05:30:59;53.63;;;18.25;;
40787;SDS011;26497;52.494;7.546;2023-03-08T05:33:28;42.00;;;16.98;;
40787;SDS011;26497;52.494;7.546;2023-03-08T05:35:56;48.38;;;16.88;;
40787;SDS011;26497;52.494;7.546;2023-03-08T05:38:23;38.58;;;16.60;;
40787;SDS011;26497;52.494;7.546;2023-03-08T05:40:51;40.15;;;14.20;;
40787;SDS011;26497;52.494;7.546;2023-03-08T05:43:18;47.63;;;17.05;;
40787;SDS011;26497;52.494;7.546;2023-03-08T05:45:53;44.38;;;14.55;;
40787;SDS011;26497;52.494;7.546;2023-03-08T05:48:22;42.38;;;14.18;;
40787;SDS011;26497;52.494;7.546;2023-03-08T05:50:51;42.13;;;15.45;;
40787;SDS011;26497;52.494;7.546;2023-03-08T05:53:18;36.67;;;14.02;;
40787;SDS011;26497;52.494;7.546;2023-03-08T05:55:46;36.60;;;15.10;;
40787;SDS011;26497;52.494;7.546;2023-03-08T05:58:14;40.15;;;14.63;;
40787;SDS011;26497;52.494;7.546;2023-03-08T06:00:41;39.00;;;15.23;;
40787;SDS011;26497;52.494;7.546;2023-03-08T06:03:08;35.15;;;12.75;;
40787;SDS011;26497;52.494;7.546;2023-03-08T06:05:35;37.35;;;13.77;;
40787;SDS011;26497;52.494;7.546;2023-03-08T06:08:04;39.05;;;14.63;;
40787;SDS011;26497;52.494;7.546;2023-03-08T06:10:32;45.38;;;16.15;;
40787;SDS011;26497;52.494;7.546;2023-03-08T06:12:59;35.42;;;15.38;;
40787;SDS011;26497;52.494;7.546;2023-03-08T06:15:27;43.97;;;14.20;;
40787;SDS011;26497;52.494;7.546;2023-03-08T06:17:54;39.55;;;15.02;;
40787;SDS011;26497;52.494;7.546;2023-03-08T06:20:21;38.80;;;15.88;;
40787;SDS011;26497;52.494;7.546;2023-03-08T06:22:48;35.55;;;14.27;;
40787;SDS011;26497;52.494;7.546;2023-03-08T06:25:17;32.28;;;13.63;;
40787;SDS011;26497;52.494;7.546;2023-03-08T06:27:44;37.75;;;14.40;;
40787;SDS011;26497;52.494;7.546;2023-03-08T06:30:11;33.85;;;14.05;;
40787;SDS011;26497;52.494;7.546;2023-03-08T06:32:39;41.00;;;14.40;;
40787;SDS011;26497;52.494;7.546;2023-03-08T06:35:07;33.20;;;12.45;;
40787;SDS011;26497;52.494;7.546;2023-03-08T06:37:37;30.98;;;13.45;;
40787;SDS011;26497;52.494;7.546;2023-03-08T06:40:05;37.25;;;12.95;;
40787;SDS011;26497;52.494;7.546;2023-03-08T06:42:35;30.30;;;13.18;;
40787;SDS011;26497;52.494;7.546;2023-03-08T06:45:02;28.80;;;11.50;;
40787;SDS011;26497;52.494;7.546;2023-03-08T06:47:30;33.08;;;13.38;;
40787;SDS011;26497;52.494;7.546;2023-03-08T06:49:57;33.83;;;15.07;;
40787;SDS011;26497;52.494;7.546;2023-03-08T06:52:24;36.42;;;15.68;;
40787;SDS011;26497;52.494;7.546;2023-03-08T06:54:51;37.72;;;14.20;;
40787;SDS011;26497;52.494;7.546;2023-03-08T06:57:18;34.65;;;14.15;;
40787;SDS011;26497;52.494;7.546;2023-03-08T06:59:47;30.75;;;11.98;;
40787;SDS011;26497;52.494;7.546;2023-03-08T07:02:14;37.63;;;14.10;;
40787;SDS011;26497;52.494;7.546;2023-03-08T07:04:41;28.15;;;11.60;;
40787;SDS011;26497;52.494;7.546;2023-03-08T07:07:08;35.00;;;12.77;;
40787;SDS011;26497;52.494;7.546;2023-03-08T07:09:35;30.50;;;12.95;;
40787;SDS011;26497;52.494;7.546;2023-03-08T07:12:02;34.08;;;12.95;;
40787;SDS011;26497;52.494;7.546;2023-03-08T07:14:30;29.73;;;14.43;;
40787;SDS011;26497;52.494;7.546;2023-03-08T07:16:58;34.63;;;13.27;;
40787;SDS011;26497;52.494;7.546;2023-03-08T07:19:25;39.20;;;13.45;;
40787;SDS011;26497;52.494;7.546;2023-03-08T07:21:52;27.30;;;11.02;;
40787;SDS011;26497;52.494;7.546;2023-03-08T07:24:19;35.08;;;13.02;;
40787;SDS011;26497;52.494;7.546;2023-03-08T07:26:46;26.48;;;12.25;;
40787;SDS011;26497;52.494;7.546;2023-03-08T07:29:15;33.13;;;12.23;;
40787;SDS011;26497;52.494;7.546;2023-03-08T07:31:42;30.10;;;11.93;;
40787;SDS011;26497;52.494;7.546;2023-03-08T07:34:10;28.77;;;12.32;;
40787;SDS011;26497;52.494;7.546;2023-03-08T07:36:37;28.25;;;11.60;;
40787;SDS011;26497;52.494;7.546;2023-03-08T07:39:04;37.50;;;12.38;;
40787;SDS011;26497;52.494;7.546;2023-03-08T07:41:32;25.08;;;11.07;;
40787;SDS011;26497;52.494;7.546;2023-03-08T07:43:59;27.45;;;9.88;;
40787;SDS011;26497;52.494;7.546;2023-03-08T07:46:27;27.08;;;11.60;;
40787;SDS011;26497;52.494;7.546;2023-03-08T07:48:54;28.02;;;11.27;;
40787;SDS011;26497;52.494;7.546;2023-03-08T07:51:23;37.28;;;12.63;;
40787;SDS011;26497;52.494;7.546;2023-03-08T07:53:50;28.90;;;11.13;;
40787;SDS011;26497;52.494;7.546;2023-03-08T07:56:18;28.27;;;11.20;;
40787;SDS011;26497;52.494;7.546;2023-03-08T07:58:45;23.13;;;11.25;;
40787;SDS011;26497;52.494;7.546;2023-03-08T08:01:12;28.95;;;12.07;;
40787;SDS011;26497;52.494;7.546;2023-03-08T08:03:40;36.97;;;14.48;;
40787;SDS011;26497;52.494;7.546;2023-03-08T08:06:07;36.13;;;13.88;;
40787;SDS011;26497;52.494;7.546;2023-03-08T08:08:36;38.60;;;15.38;;
40787;SDS011;26497;52.494;7.546;2023-03-08T08:11:08;44.10;;;16.13;;
40787;SDS011;26497;52.494;7.546;2023-03-08T08:13:37;38.92;;;15.32;;
40787;SDS011;26497;52.494;7.546;2023-03-08T08:16:05;44.60;;;17.23;;
40787;SDS011;26497;52.494;7.546;2023-03-08T08:18:32;43.75;;;16.65;;
40787;SDS011;26497;52.494;7.546;2023-03-08T08:21:00;42.40;;;17.55;;
40787;SDS011;26497;52.494;7.546;2023-03-08T08:23:29;44.72;;;16.90;;
40787;SDS011;26497;52.494;7.546;2023-03-08T08:25:58;52.70;;;19.05;;
40787;SDS011;26497;52.494;7.546;2023-03-08T08:28:29;33.13;;;13.57;;
40787;SDS011;26497;52.494;7.546;2023-03-08T08:30:56;30.73;;;13.45;;
40787;SDS011;26497;52.494;7.546;2023-03-08T08:33:26;34.35;;;14.30;;
40787;SDS011;26497;52.494;7.546;2023-03-08T08:35:54;32.42;;;12.98;;
40787;SDS011;26497;52.494;7.546;2023-03-08T08:38:21;33.20;;;13.45;;
40787;SDS011;26497;52.494;7.546;2023-03-08T08:40:49;24.65;;;11.73;;
40787;SDS011;26497;52.494;7.546;2023-03-08T08:43:17;28.42;;;11.57;;
40787;SDS011;26497;52.494;7.546;2023-03-08T08:45:45;19.80;;;9.82;;
40787;SDS011;26497;52.494;7.546;2023-03-08T08:48:13;24.02;;;11.35;;
40787;SDS011;26497;52.494;7.546;2023-03-08T08:50:41;23.35;;;10.55;;
40787;SDS011;26497;52.494;7.546;2023-03-08T08:53:08;25.02;;;10.88;;
40787;SDS011;26497;52.494;7.546;2023-03-08T08:55:36;28.10;;;11.48;;
40787;SDS011;26497;52.494;7.546;2023-03-08T08:58:03;24.20;;;10.50;;
40787;SDS011;26497;52.494;7.546;2023-03-08T09:00:33;30.42;;;11.00;;
40787;SDS011;26497;52.494;7.546;2023-03-08T09:03:01;20.52;;;10.38;;
40787;SDS011;26497;52.494;7.546;2023-03-08T09:05:29;37.53;;;14.52;;
40787;SDS011;26497;52.494;7.546;2023-03-08T09:07:58;24.75;;;11.32;;
40787;SDS011;26497;52.494;7.546;2023-03-08T09:10:27;26.23;;;12.07;;
40787;SDS011;26497;52.494;7.546;2023-03-08T09:12:56;25.95;;;13.23;;
40787;SDS011;26497;52.494;7.546;2023-03-08T09:15:24;30.38;;;12.68;;
40787;SDS011;26497;52.494;7.546;2023-03-08T09:17:53;32.47;;;13.27;;
40787;SDS011;26497;52.494;7.546;2023-03-08T09:20:20;35.00;;;14.80;;
40787;SDS011;26497;52.494;7.546;2023-03-08T09:22:47;22.75;;;11.95;;
40787;SDS011;26497;52.494;7.546;2023-03-08T09:25:14;27.70;;;13.05;;
40787;SDS011;26497;52.494;7.546;2023-03-08T09:27:43;30.52;;;13.13;;
40787;SDS011;26497;52.494;7.546;2023-03-08T09:30:11;24.33;;;11.68;;
40787;SDS011;26497;52.494;7.546;2023-03-08T09:32:40;22.75;;;10.38;;
40787;SDS011;26497;52.494;7.546;2023-03-08T09:35:08;24.45;;;11.70;;
40787;SDS011;26497;52.494;7.546;2023-03-08T09:37:36;20.75;;;11.35;;
40787;SDS011;26497;52.494;7.546;2023-03-08T09:40:03;23.30;;;10.68;;
40787;SDS011;26497;52.494;7.546;2023-03-08T09:42:33;24.25;;;12.32;;
40787;SDS011;26497;52.494;7.546;2023-03-08T09:45:05;22.95;;;10.38;;
40787;SDS011;26497;52.494;7.546;2023-03-08T09:47:40;24.70;;;12.18;;
40787;SDS011;26497;52.494;7.546;2023-03-08T09:53:10;27.13;;;13.77;;
40787;SDS011;26497;52.494;7.546;2023-03-08T09:55:47;25.63;;;11.30;;
40787;SDS011;26497;52.494;7.546;2023-03-08T09:58:26;24.13;;;12.75;;
40787;SDS011;26497;52.494;7.546;2023-03-08T10:01:05;24.05;;;11.98;;
40787;SDS011;26497;52.494;7.546;2023-03-08T10:03:51;26.77;;;11.73;;
40787;SDS011;26497;52.494;7.546;2023-03-08T10:06:53;29.45;;;12.90;;
40787;SDS011;26497;52.494;7.546;2023-03-08T10:09:34;23.58;;;10.95;;
40787;SDS011;26497;52.494;7.546;2023-03-08T10:12:09;27.98;;;13.00;;
40787;SDS011;26497;52.494;7.546;2023-03-08T10:14:47;26.50;;;12.77;;
40787;SDS011;26497;52.494;7.546;2023-03-08T10:17:19;24.98;;;12.50;;
40787;SDS011;26497;52.494;7.546;2023-03-08T10:19:51;26.67;;;11.40;;
40787;SDS011;26497;52.494;7.546;2023-03-08T10:22:24;21.58;;;11.07;;
40787;SDS011;26497;52.494;7.546;2023-03-08T10:24:54;26.13;;;12.48;;
40787;SDS011;26497;52.494;7.546;2023-03-08T10:27:26;27.88;;;12.60;;
40787;SDS011;26497;52.494;7.546;2023-03-08T10:29:59;28.20;;;10.98;;
40787;SDS011;26497;52.494;7.546;2023-03-08T10:32:40;24.20;;;11.35;;
40787;SDS011;26497;52.494;7.546;2023-03-08T10:35:08;21.83;;;11.75;;
40787;SDS011;26497;52.494;7.546;2023-03-08T10:37:38;25.35;;;12.25;;
40787;SDS011;26497;52.494;7.546;2023-03-08T10:40:07;24.67;;;12.85;;
40787;SDS011;26497;52.494;7.546;2023-03-08T10:42:41;28.70;;;13.32;;
40787;SDS011;26497;52.494;7.546;2023-03-08T10:45:15;29.35;;;11.65;;
40787;SDS011;26497;52.494;7.546;2023-03-08T10:47:52;22.90;;;11.43;;
40787;SDS011;26497;52.494;7.546;2023-03-08T10:50:22;22.52;;;11.98;;
40787;SDS011;26497;52.494;7.546;2023-03-08T10:52:53;22.63;;;11.65;;
40787;SDS011;26497;52.494;7.546;2023-03-08T10:55:21;24.40;;;11.20;;
40787;SDS011;26497;52.494;7.546;2023-03-08T10:57:52;23.15;;;11.88;;
40787;SDS011;26497;52.494;7.546;2023-03-08T11:00:31;26.45;;;12.82;;
40787;SDS011;26497;52.494;7.546;2023-03-08T11:03:01;24.73;;;10.55;;
40787;SDS011;26497;52.494;7.546;2023-03-08T11:05:49;22.75;;;10.35;;
40787;SDS011;26497;52.494;7.546;2023-03-08T11:08:23;21.83;;;11.25;;
40787;SDS011;26497;52.494;7.546;2023-03-08T11:11:00;21.33;;;10.70;;
40787;SDS011;26497;52.494;7.546;2023-03-08T11:13:31;29.60;;;11.02;;
40787;SDS011;26497;52.494;7.546;2023-03-08T11:16:03;25.35;;;13.10;;
40787;SDS011;26497;52.494;7.546;2023-03-08T11:18:45;18.27;;;10.05;;
40787;SDS011;26497;52.494;7.546;2023-03-08T11:21:25;20.70;;;10.65;;
40787;SDS011;26497;52.494;7.546;2023-03-08T11:24:03;16.98;;;8.43;;
40787;SDS011;26497;52.494;7.546;2023-03-08T11:26:44;19.02;;;8.73;;
40787;SDS011;26497;52.494;7.546;2023-03-08T11:29:27;17.42;;;9.93;;
40787;SDS011;26497;52.494;7.546;2023-03-08T11:32:12;14.82;;;9.07;;
40787;SDS011;26497;52.494;7.546;2023-03-08T11:34:59;16.20;;;7.63;;
40787;SDS011;26497;52.494;7.546;2023-03-08T11:37:37;15.60;;;8.10;;
40787;SDS011;26497;52.494;7.546;2023-03-08T11:40:20;10.77;;;6.13;;
40787;SDS011;26497;52.494;7.546;2023-03-08T11:42:53;12.25;;;6.13;;
40787;SDS011;26497;52.494;7.546;2023-03-08T11:45:34;10.32;;;5.90;;
40787;SDS011;26497;52.494;7.546;2023-03-08T11:51:20;17.08;;;6.82;;
40787;SDS011;26497;52.494;7.546;2023-03-08T11:53:58;11.68;;;5.95;;
40787;SDS011;26497;52.494;7.546;2023-03-08T11:56:43;7.90;;;5.45;;
40787;SDS011;26497;52.494;7.546;2023-03-08T11:59:18;12.75;;;5.53;;
40787;SDS011;26497;52.494;7.546;2023-03-08T12:01:55;12.20;;;5.68;;
40787;SDS011;26497;52.494;7.546;2023-03-08T12:04:29;8.73;;;4.95;;
40787;SDS011;26497;52.494;7.546;2023-03-08T12:07:05;9.23;;;4.60;;
40787;SDS011;26497;52.494;7.546;2023-03-08T12:09:43;12.43;;;4.82;;
40787;SDS011;26497;52.494;7.546;2023-03-08T12:12:23;7.00;;;4.55;;
40787;SDS011;26497;52.494;7.546;2023-03-08T12:14:56;6.70;;;3.80;;
40787;SDS011;26497;52.494;7.546;2023-03-08T12:17:33;11.73;;;4.72;;
40787;SDS011;26497;52.494;7.546;2023-03-08T12:20:06;7.65;;;3.58;;
40787;SDS011;26497;52.494;7.546;2023-03-08T12:22:43;9.23;;;4.22;;
40787;SDS011;26497;52.494;7.546;2023-03-08T12:25:16;8.25;;;4.10;;
40787;SDS011;26497;52.494;7.546;2023-03-08T12:27:53;7.57;;;4.18;;
40787;SDS011;26497;52.494;7.546;2023-03-08T12:30:32;5.75;;;4.05;;
40787;SDS011;26497;52.494;7.546;2023-03-08T12:33:10;7.43;;;4.15;;
40787;SDS011;26497;52.494;7.546;2023-03-08T12:35:48;6.85;;;4.20;;
40787;SDS011;26497;52.494;7.546;2023-03-08T12:38:28;11.57;;;3.88;;
40787;SDS011;26497;52.494;7.546;2023-03-08T12:41:02;8.52;;;3.60;;
40787;SDS011;26497;52.494;7.546;2023-03-08T12:43:35;7.47;;;3.80;;
40787;SDS011;26497;52.494;7.546;2023-03-08T12:46:04;10.30;;;3.45;;
40787;SDS011;26497;52.494;7.546;2023-03-08T12:48:34;6.22;;;3.38;;
40787;SDS011;26497;52.494;7.546;2023-03-08T12:51:07;6.85;;;3.33;;
40787;SDS011;26497;52.494;7.546;2023-03-08T12:53:54;8.98;;;3.97;;
40787;SDS011;26497;52.494;7.546;2023-03-08T12:56:27;8.27;;;5.03;;
40787;SDS011;26497;52.494;7.546;2023-03-08T12:58:59;9.85;;;3.95;;
40787;SDS011;26497;52.494;7.546;2023-03-08T13:01:58;8.25;;;4.45;;
40787;SDS011;26497;52.494;7.546;2023-03-08T13:04:28;8.02;;;3.97;;
40787;SDS011;26497;52.494;7.546;2023-03-08T13:09:53;8.70;;;3.78;;
40787;SDS011;26497;52.494;7.546;2023-03-08T13:15:30;11.05;;;4.90;;
40787;SDS011;26497;52.494;7.546;2023-03-08T13:17:58;7.45;;;3.92;;
40787;SDS011;26497;52.494;7.546;2023-03-08T13:20:41;10.05;;;4.90;;
40787;SDS011;26497;52.494;7.546;2023-03-08T13:23:23;15.10;;;5.53;;
40787;SDS011;26497;52.494;7.546;2023-03-08T13:26:09;10.98;;;5.70;;
40787;SDS011;26497;52.494;7.546;2023-03-08T13:29:09;13.60;;;6.20;;
40787;SDS011;26497;52.494;7.546;2023-03-08T13:31:42;10.48;;;5.85;;
40787;SDS011;26497;52.494;7.546;2023-03-08T13:34:21;14.68;;;6.60;;
40787;SDS011;26497;52.494;7.546;2023-03-08T13:39:20;17.63;;;7.10;;
40787;SDS011;26497;52.494;7.546;2023-03-08T13:41:50;22.25;;;8.55;;
40787;SDS011;26497;52.494;7.546;2023-03-08T13:44:20;15.82;;;7.55;;
40787;SDS011;26497;52.494;7.546;2023-03-08T13:46:51;15.60;;;7.10;;
40787;SDS011;26497;52.494;7.546;2023-03-08T13:49:22;22.20;;;9.50;;
40787;SDS011;26497;52.494;7.546;2023-03-08T13:51:52;16.25;;;7.18;;
40787;SDS011;26497;52.494;7.546;2023-03-08T13:54:23;21.15;;;10.40;;
40787;SDS011;26497;52.494;7.546;2023-03-08T13:56:54;16.60;;;8.77;;
40787;SDS011;26497;52.494;7.546;2023-03-08T13:59:22;19.33;;;8.38;;
40787;SDS011;26497;52.494;7.546;2023-03-08T14:01:51;20.58;;;9.07;;
40787;SDS011;26497;52.494;7.546;2023-03-08T14:04:21;21.70;;;9.70;;
40787;SDS011;26497;52.494;7.546;2023-03-08T14:06:51;27.90;;;10.02;;
40787;SDS011;26497;52.494;7.546;2023-03-08T14:09:21;19.67;;;8.10;;
40787;SDS011;26497;52.494;7.546;2023-03-08T14:11:54;20.05;;;9.80;;
40787;SDS011;26497;52.494;7.546;2023-03-08T14:14:25;17.17;;;7.72;;
40787;SDS011;26497;52.494;7.546;2023-03-08T14:16:58;17.50;;;8.43;;
40787;SDS011;26497;52.494;7.546;2023-03-08T14:19:26;20.02;;;10.50;;
40787;SDS011;26497;52.494;7.546;2023-03-08T14:21:56;19.73;;;9.00;;
40787;SDS011;26497;52.494;7.546;2023-03-08T14:24:26;21.83;;;10.43;;
40787;SDS011;26497;52.494;7.546;2023-03-08T14:26:56;21.40;;;9.52;;
40787;SDS011;26497;52.494;7.546;2023-03-08T14:29:26;20.60;;;10.40;;
40787;SDS011;26497;52.494;7.546;2023-03-08T14:35:03;19.08;;;8.63;;
40787;SDS011;26497;52.494;7.546;2023-03-08T14:37:33;17.55;;;8.88;;
40787;SDS011;26497;52.494;7.546;2023-03-08T14:40:23;17.95;;;9.10;;
40787;SDS011;26497;52.494;7.546;2023-03-08T14:42:56;24.25;;;9.27;;
40787;SDS011;26497;52.494;7.546;2023-03-08T14:45:30;21.38;;;9.48;;
40787;SDS011;26497;52.494;7.546;2023-03-08T14:48:13;18.98;;;9.27;;
40787;SDS011;26497;52.494;7.546;2023-03-08T14:50:52;28.83;;;11.35;;
40787;SDS011;26497;52.494;7.546;2023-03-08T14:53:24;22.08;;;9.40;;
40787;SDS011;26497;52.494;7.546;2023-03-08T14:55:55;19.00;;;9.35;;
40787;SDS011;26497;52.494;7.546;2023-03-08T14:58:24;18.70;;;8.95;;
40787;SDS011;26497;52.494;7.546;2023-03-08T15:00:56;25.13;;;10.13;;
40787;SDS011;26497;52.494;7.546;2023-03-08T15:03:27;19.52;;;9.27;;
40787;SDS011;26497;52.494;7.546;2023-03-08T15:05:56;19.35;;;8.30;;
40787;SDS011;26497;52.494;7.546;2023-03-08T15:08:26;21.38;;;10.05;;
40787;SDS011;26497;52.494;7.546;2023-03-08T15:10:54;17.05;;;8.23;;